createdAt,value
2019-03-12T00:02:08.724Z,101521.73
2019-03-12T00:04:38.635Z,101527.70
2019-03-12T00:07:08.542Z,101526.20
2019-03-12T00:09:38.450Z,101537.48
2019-03-12T00:12:08.324Z,101546.98
2019-03-12T00:14:38.291Z,101549.37
2019-03-12T00:17:08.181Z,101555.86
2019-03-12T00:19:38.088Z,101566.38
2019-03-12T00:22:07.984Z,101558.61
2019-03-12T00:24:38.167Z,101567.02
2019-03-12T00:27:08.507Z,101560.18
2019-03-12T00:29:38.602Z,101563.33
2019-03-12T00:32:08.493Z,101565.05
2019-03-12T00:34:38.673Z,101563.48
2019-03-12T00:37:08.655Z,101567.17
2019-03-12T00:39:38.587Z,101564.88
2019-03-12T00:42:08.564Z,101559.91
2019-03-12T00:44:38.445Z,101562.90
2019-03-12T00:47:08.365Z,101564.64
2019-03-12T00:49:38.260Z,101564.03
2019-03-12T00:52:08.208Z,101571.95
2019-03-12T00:54:38.408Z,101569.91
2019-03-12T00:57:08.356Z,101574.53
2019-03-12T00:59:38.327Z,101577.48
2019-03-12T01:02:08.254Z,101575.28
2019-03-12T01:04:38.314Z,101586.80
2019-03-12T01:07:09.005Z,101591.98
2019-03-12T01:09:39.123Z,101607.55
2019-03-12T01:12:09.168Z,101609.50
2019-03-12T01:14:39.059Z,101621.22
2019-03-12T01:17:09.384Z,101619.81
2019-03-12T01:19:39.286Z,101619.59
2019-03-12T01:22:09.643Z,101610.61
2019-03-12T01:24:39.772Z,101618.05
2019-03-12T01:27:09.655Z,101624.58
2019-03-12T01:29:39.538Z,101630.78
2019-03-12T01:32:09.495Z,101626.36
2019-03-12T01:34:39.369Z,101624.37
2019-03-12T01:37:09.627Z,101623.21
2019-03-12T01:39:39.505Z,101633.17
2019-03-12T01:42:09.631Z,101633.44
2019-03-12T01:44:39.523Z,101643.71
2019-03-12T01:47:09.890Z,101641.24
2019-03-12T01:49:39.999Z,101651.82
2019-03-12T01:52:10.055Z,101647.77
2019-03-12T01:54:39.927Z,101650.70
2019-03-12T01:57:09.820Z,101656.98
2019-03-12T01:59:40.026Z,101648.95
2019-03-12T02:02:09.967Z,101652.24
2019-03-12T02:04:40.096Z,101654.47
2019-03-12T02:07:10.094Z,101649.96
2019-03-12T02:09:39.973Z,101651.50
2019-03-12T02:12:09.860Z,101642.22
2019-03-12T02:14:39.743Z,101645.55
2019-03-12T02:17:09.938Z,101643.77
2019-03-12T02:19:39.823Z,101646.21
2019-03-12T02:22:09.705Z,101645.91
2019-03-12T02:24:52.178Z,101656.98
2019-03-12T02:27:11.821Z,101658.03
2019-03-12T02:29:41.756Z,101650.11
2019-03-12T02:32:12.028Z,101651.78
2019-03-12T02:34:41.922Z,101653.83
2019-03-12T02:37:12.033Z,101665.67
2019-03-12T02:39:42.241Z,101658.84
2019-03-12T02:42:12.906Z,101665.79
2019-03-12T02:44:43.042Z,101664.50
2019-03-12T02:47:13.004Z,101674.50
2019-03-12T02:49:43.017Z,101670.53
2019-03-12T02:52:12.975Z,101676.05
2019-03-12T02:54:42.887Z,101669.16
2019-03-12T02:57:12.828Z,101670.67
2019-03-12T02:59:42.814Z,101663.48
2019-03-12T03:02:12.743Z,101662.95
2019-03-12T03:04:42.615Z,101669.22
2019-03-12T03:07:20.483Z,101672.98
2019-03-12T03:09:50.433Z,101670.12
2019-03-12T03:12:20.667Z,101671.55
2019-03-12T03:14:50.663Z,101672.31
2019-03-12T03:17:20.590Z,101678.02
2019-03-12T03:19:50.553Z,101687.41
2019-03-12T03:22:20.522Z,101687.84
2019-03-12T03:24:50.789Z,101684.16
2019-03-12T03:27:21.126Z,101685.98
2019-03-12T03:29:51.321Z,101685.05
2019-03-12T03:32:21.471Z,101688.95
2019-03-12T03:34:51.412Z,101681.02
2019-03-12T03:37:21.411Z,101683.03
2019-03-12T03:39:51.337Z,101683.71
2019-03-12T03:42:21.545Z,101686.87
2019-03-12T03:44:51.809Z,101687.30
2019-03-12T03:47:22.294Z,101683.21
2019-03-12T03:49:52.279Z,101686.06
2019-03-12T03:52:22.452Z,101682.03
2019-03-12T03:54:52.697Z,101679.57
2019-03-12T03:57:22.564Z,101671.79
2019-03-12T03:59:52.511Z,101673.00
2019-03-12T04:02:22.398Z,101676.36
2019-03-12T04:04:52.356Z,101676.72
2019-03-12T04:07:22.268Z,101676.72
2019-03-12T04:09:52.273Z,101676.11
2019-03-12T04:12:22.189Z,101682.75
2019-03-12T04:14:52.123Z,101684.40
2019-03-12T04:17:22.562Z,101686.58
2019-03-12T04:19:52.620Z,101691.50
2019-03-12T04:22:22.587Z,101692.99
2019-03-12T04:24:52.490Z,101696.17
2019-03-12T04:27:22.413Z,101693.41
2019-03-12T04:29:52.539Z,101695.55
2019-03-12T04:32:22.692Z,101698.70
2019-03-12T04:34:52.741Z,101696.91
2019-03-12T04:37:22.971Z,101699.22
2019-03-12T04:39:52.839Z,101700.20
2019-03-12T04:42:23.055Z,101705.66
2019-03-12T04:44:52.996Z,101697.78
2019-03-12T04:47:22.910Z,101700.59
2019-03-12T04:49:52.829Z,101700.34
2019-03-12T04:52:22.723Z,101696.17
2019-03-12T04:54:52.694Z,101688.92
2019-03-12T04:57:23.151Z,101688.07
2019-03-12T04:59:53.105Z,101689.73
2019-03-12T05:02:23.295Z,101696.44
2019-03-12T05:04:53.330Z,101704.10
2019-03-12T05:07:23.252Z,101693.73
2019-03-12T05:09:53.392Z,101703.10
2019-03-12T05:12:23.276Z,101702.61
2019-03-12T05:14:53.427Z,101708.52
2019-03-12T05:17:26.407Z,101703.88
2019-03-12T05:19:56.837Z,101706.00
2019-03-12T05:22:27.054Z,101705.77
2019-03-12T05:24:56.979Z,101704.84
2019-03-12T05:27:27.268Z,101705.47
2019-03-12T05:29:57.317Z,101715.91
2019-03-12T05:32:27.506Z,101716.86
2019-03-12T05:34:57.408Z,101723.16
2019-03-12T05:37:27.351Z,101727.59
2019-03-12T05:39:57.260Z,101724.55
2019-03-12T05:42:27.159Z,101724.61
2019-03-12T05:44:57.113Z,101724.23
2019-03-12T05:47:27.026Z,101723.72
2019-03-12T05:49:56.961Z,101731.77
2019-03-12T05:52:26.943Z,101731.48
2019-03-12T05:54:57.077Z,101729.41
2019-03-12T05:57:27.064Z,101731.72
2019-03-12T05:59:57.005Z,101728.22
2019-03-12T06:02:27.289Z,101733.46
2019-03-12T06:04:57.200Z,101734.09
2019-03-12T06:07:27.108Z,101737.34
2019-03-12T06:09:57.568Z,101739.92
2019-03-12T06:12:27.489Z,101736.94
2019-03-12T06:14:57.410Z,101735.06
2019-03-12T06:17:27.436Z,101733.13
2019-03-12T06:19:57.452Z,101727.17
2019-03-12T06:22:27.372Z,101727.23
2019-03-12T06:24:57.566Z,101726.53
2019-03-12T06:27:27.819Z,101717.43
2019-03-12T06:29:58.020Z,101724.64
2019-03-12T06:32:34.715Z,101724.25
2019-03-12T06:35:10.349Z,101717.34
2019-03-12T06:37:48.770Z,101719.19
2019-03-12T06:40:33.186Z,101718.05
2019-03-12T06:43:22.058Z,101726.44
2019-03-12T06:46:08.823Z,101724.72
2019-03-12T06:48:43.401Z,101725.86
2019-03-12T06:51:35.399Z,101727.06
2019-03-12T06:54:23.032Z,101725.77
2019-03-12T06:57:11.950Z,101732.19
2019-03-12T06:59:59.725Z,101727.38
2019-03-12T07:02:57.955Z,101728.97
2019-03-12T07:05:46.945Z,101728.52
2019-03-12T07:08:38.827Z,101725.89
2019-03-12T07:11:35.468Z,101723.66
2019-03-12T07:14:10.656Z,101725.48
2019-03-12T07:16:49.777Z,101727.72
2019-03-12T07:19:31.136Z,101725.02
2019-03-12T07:22:15.519Z,101727.72
2019-03-12T07:24:56.250Z,101725.55
2019-03-12T07:27:44.757Z,101721.19
2019-03-12T07:30:33.956Z,101720.20
2019-03-12T07:33:10.559Z,101725.56
2019-03-12T07:35:45.473Z,101728.02
2019-03-12T07:38:31.040Z,101711.86
2019-03-12T07:41:31.598Z,101718.11
2019-03-12T07:44:12.230Z,101720.37
2019-03-12T07:47:03.937Z,101709.27
2019-03-12T07:49:42.614Z,101709.69
2019-03-12T07:52:29.695Z,101707.06
2019-03-12T07:55:29.858Z,101705.05
2019-03-12T07:58:14.464Z,101698.81
2019-03-12T08:00:50.430Z,101700.51
2019-03-12T08:03:42.373Z,101702.83
2019-03-12T08:06:34.440Z,101709.06
2019-03-12T08:09:29.123Z,101696.88
2019-03-12T08:12:10.736Z,101703.77
2019-03-12T08:14:50.917Z,101702.38
2019-03-12T08:17:38.750Z,101698.41
2019-03-12T08:20:21.866Z,101697.36
2019-03-12T08:23:02.175Z,101695.81
2019-03-12T08:25:57.457Z,101691.73
2019-03-12T08:28:36.801Z,101693.22
2019-03-12T08:31:14.846Z,101691.71
2019-03-12T08:34:16.517Z,101685.95
2019-03-12T08:37:06.687Z,101685.19
2019-03-12T08:39:59.147Z,101674.78
2019-03-12T08:42:54.857Z,101676.00
2019-03-12T08:45:40.476Z,101677.55
2019-03-12T08:48:20.456Z,101673.75
2019-03-12T08:50:57.054Z,101675.19
2019-03-12T08:53:38.358Z,101668.43
2019-03-12T08:56:26.598Z,101657.09
2019-03-12T08:59:19.074Z,101664.67
2019-03-12T09:02:24.001Z,101664.84
2019-03-12T09:05:16.028Z,101657.71
2019-03-12T09:08:02.073Z,101660.22
2019-03-12T09:10:38.202Z,101657.14
2019-03-12T09:13:18.183Z,101649.69
2019-03-12T09:16:01.210Z,101641.88
2019-03-12T09:18:39.593Z,101641.18
2019-03-12T09:21:24.315Z,101645.79
2019-03-12T09:24:18.552Z,101641.98
2019-03-12T09:27:07.639Z,101630.33
2019-03-12T09:30:00.065Z,101618.28
2019-03-12T09:32:40.930Z,101613.59
2019-03-12T09:35:35.894Z,101609.75
2019-03-12T09:38:13.934Z,101608.00
2019-03-12T09:41:01.428Z,101600.75
2019-03-12T09:43:53.324Z,101594.86
2019-03-12T09:46:43.443Z,101594.94
2019-03-12T09:49:41.334Z,101584.62
2019-03-12T09:52:29.050Z,101591.89
2019-03-12T09:55:16.576Z,101588.42
2019-03-12T09:57:57.492Z,101580.70
2019-03-12T10:00:45.536Z,101577.55
2019-03-12T10:03:36.737Z,101575.30
2019-03-12T10:06:40.298Z,101572.18
2019-03-12T10:09:37.188Z,101565.66
2019-03-12T10:12:24.523Z,101555.38
2019-03-12T10:15:12.276Z,101547.45
2019-03-12T10:18:10.352Z,101546.25
2019-03-12T10:20:59.477Z,101533.97
2019-03-12T10:23:51.463Z,101532.45
2019-03-12T10:26:37.624Z,101523.68
2019-03-12T10:29:26.025Z,101525.89
2019-03-12T10:32:09.109Z,101516.49
2019-03-12T10:34:51.340Z,101510.78
2019-03-12T10:37:27.536Z,101499.96
2019-03-12T10:40:13.600Z,101502.02
2019-03-12T10:42:58.128Z,101506.78
2019-03-12T10:45:38.764Z,101512.39
2019-03-12T10:48:08.914Z,101507.48
2019-03-12T10:50:38.838Z,101495.50
2019-03-12T10:53:08.802Z,101488.36
2019-03-12T10:55:38.714Z,101489.19
2019-03-12T10:58:08.593Z,101482.46
2019-03-12T11:00:39.285Z,101485.58
2019-03-12T11:03:09.451Z,101477.64
2019-03-12T11:05:46.047Z,101468.16
2019-03-12T11:08:11.169Z,101471.39
2019-03-12T11:10:41.426Z,101464.78
2019-03-12T11:13:14.509Z,101459.94
2019-03-12T11:15:43.328Z,101452.59
2019-03-12T11:18:13.262Z,101450.16
2019-03-12T11:20:43.186Z,101437.64
2019-03-12T11:23:13.071Z,101432.57
2019-03-12T11:25:43.186Z,101433.84
2019-03-12T11:28:13.510Z,101427.02
2019-03-12T11:30:43.488Z,101424.36
2019-03-12T11:33:13.853Z,101421.59
2019-03-12T11:35:44.277Z,101411.73
2019-03-12T11:38:14.218Z,101408.87
2019-03-12T11:40:44.122Z,101404.13
2019-03-12T11:43:14.275Z,101402.05
2019-03-12T11:45:44.448Z,101393.65
2019-03-12T11:48:14.613Z,101389.66
2019-03-12T11:50:44.940Z,101382.48
2019-03-12T11:53:14.919Z,101382.89
2019-03-12T11:55:44.828Z,101375.87
2019-03-12T11:58:15.017Z,101367.37
2019-03-12T12:00:49.967Z,101366.48
2019-03-12T12:03:19.871Z,101359.86
2019-03-12T12:05:49.765Z,101356.34
2019-03-12T12:08:19.711Z,101351.32
2019-03-12T12:10:49.828Z,101334.00
2019-03-12T12:13:19.781Z,101333.45
2019-03-12T12:15:50.113Z,101320.14
2019-03-12T12:18:20.007Z,101309.93
2019-03-12T12:20:50.143Z,101310.69
2019-03-12T12:23:20.079Z,101311.08
2019-03-12T12:25:50.063Z,101308.05
2019-03-12T12:28:19.983Z,101305.04
2019-03-12T12:30:50.270Z,101295.44
2019-03-12T12:33:20.175Z,101292.84
2019-03-12T12:35:50.039Z,101288.84
2019-03-12T12:38:19.954Z,101276.84
2019-03-12T12:40:50.342Z,101275.08
2019-03-12T12:43:20.327Z,101266.04
2019-03-12T12:45:50.334Z,101256.02
2019-03-12T12:48:20.630Z,101255.59
2019-03-12T12:51:02.423Z,101244.95
2019-03-12T12:53:22.477Z,101245.70
2019-03-12T12:55:52.696Z,101245.30
2019-03-12T12:58:22.588Z,101239.20
2019-03-12T13:00:53.882Z,101234.98
2019-03-12T13:03:23.941Z,101226.12
2019-03-12T13:05:55.598Z,101225.30
2019-03-12T13:08:25.945Z,101212.55
2019-03-12T13:10:56.085Z,101196.44
2019-03-12T13:13:25.985Z,101201.81
2019-03-12T13:15:55.862Z,101201.94
2019-03-12T13:18:25.782Z,101207.80
2019-03-12T13:20:55.918Z,101195.55
2019-03-12T13:23:25.887Z,101190.32
2019-03-12T13:25:56.101Z,101180.38
2019-03-12T13:28:28.065Z,101183.42
2019-03-12T13:30:58.026Z,101174.45
2019-03-12T13:33:28.615Z,101181.77
2019-03-12T13:35:58.742Z,101176.64
2019-03-12T13:38:28.735Z,101166.01
2019-03-12T13:41:02.898Z,101164.15
2019-03-12T13:43:30.437Z,101157.86
2019-03-12T13:46:00.823Z,101147.80
2019-03-12T13:48:30.883Z,101131.03
2019-03-12T13:51:00.895Z,101126.06
2019-03-12T13:53:31.217Z,101134.70
2019-03-12T13:56:01.438Z,101125.56
2019-03-12T13:58:31.713Z,101123.24
2019-03-12T14:01:01.625Z,101121.80
2019-03-12T14:03:31.582Z,101111.59
2019-03-12T14:06:08.624Z,101106.94
2019-03-12T14:08:42.108Z,101100.38
2019-03-12T14:11:12.112Z,101107.55
2019-03-12T14:13:42.196Z,101101.37
2019-03-12T14:16:12.529Z,101104.16
2019-03-12T14:18:42.465Z,101096.59
2019-03-12T14:21:15.245Z,101091.83
2019-03-12T14:23:54.936Z,101090.14
2019-03-12T14:26:25.046Z,101075.22
2019-03-12T14:28:55.088Z,101073.52
2019-03-12T14:31:25.402Z,101065.31
2019-03-12T14:33:56.487Z,101064.45
2019-03-12T14:36:27.702Z,101065.67
2019-03-12T14:38:57.829Z,101048.56
2019-03-12T14:41:28.178Z,101054.52
2019-03-12T14:43:58.854Z,101046.23
2019-03-12T14:46:29.267Z,101028.97
2019-03-12T14:49:02.350Z,101025.75
2019-03-12T14:52:19.531Z,101020.66
2019-03-12T14:54:49.629Z,101017.04
2019-03-12T14:57:19.546Z,101005.55
2019-03-12T14:59:49.633Z,101001.49
2019-03-12T15:02:19.763Z,100996.31
2019-03-12T15:04:50.302Z,100993.73
2019-03-12T15:07:21.729Z,100994.88
2019-03-12T15:09:52.783Z,100981.32
2019-03-12T15:12:26.842Z,100977.70
2019-03-12T15:14:57.275Z,100970.23
2019-03-12T15:17:28.494Z,100964.98
2019-03-12T15:19:58.557Z,100962.91
2019-03-12T15:22:28.742Z,100952.17
2019-03-12T15:24:58.603Z,100950.69
2019-03-12T15:27:29.059Z,100939.70
2019-03-12T15:29:59.071Z,100939.88
2019-03-12T15:32:29.014Z,100931.90
2019-03-12T15:34:58.932Z,100932.02
2019-03-12T15:37:28.863Z,100918.67
2019-03-12T15:39:58.801Z,100910.59
2019-03-12T15:42:28.766Z,100905.20
2019-03-12T15:44:58.950Z,100901.47
2019-03-12T15:47:29.253Z,100886.11
2019-03-12T15:49:59.785Z,100885.93
2019-03-12T15:52:29.708Z,100879.44
2019-03-12T15:54:59.762Z,100879.10
2019-03-12T15:57:29.664Z,100866.67
2019-03-12T15:59:59.723Z,100859.95
2019-03-12T16:02:29.642Z,100859.00
2019-03-12T16:04:59.965Z,100850.83
2019-03-12T16:07:36.054Z,100853.14
2019-03-12T16:10:06.645Z,100846.76
2019-03-12T16:12:36.948Z,100842.14
2019-03-12T16:15:08.229Z,100834.41
2019-03-12T16:17:38.491Z,100819.05
2019-03-12T16:20:11.034Z,100817.77
2019-03-12T16:22:41.168Z,100803.95
2019-03-12T16:25:11.697Z,100790.03
2019-03-12T16:27:42.195Z,100771.70
2019-03-12T16:30:12.438Z,100751.41
2019-03-12T16:32:42.345Z,100747.55
2019-03-12T16:35:12.346Z,100731.66
2019-03-12T16:37:42.616Z,100713.45
2019-03-12T16:40:12.942Z,100708.26
2019-03-12T16:42:42.879Z,100703.62
2019-03-12T16:45:13.252Z,100702.22
2019-03-12T16:47:43.590Z,100689.69
2019-03-12T16:50:13.869Z,100692.37
2019-03-12T16:52:43.865Z,100673.81
2019-03-12T16:55:14.414Z,100672.39
2019-03-12T16:57:44.412Z,100681.78
2019-03-12T17:00:14.802Z,100672.47
2019-03-12T17:02:44.747Z,100672.88
2019-03-12T17:05:15.413Z,100669.36
2019-03-12T17:07:47.270Z,100670.54
2019-03-12T17:10:17.308Z,100666.03
2019-03-12T17:12:47.222Z,100669.46
2019-03-12T17:15:17.507Z,100657.34
2019-03-12T17:17:47.623Z,100656.11
2019-03-12T17:20:18.141Z,100656.50
2019-03-12T17:22:48.323Z,100651.74
2019-03-12T17:25:18.437Z,100647.89
2019-03-12T17:27:51.579Z,100630.33
2019-03-12T17:30:21.322Z,100627.41
2019-03-12T17:32:51.636Z,100630.77
2019-03-12T17:35:24.397Z,100627.31
2019-03-12T17:37:54.703Z,100616.98
2019-03-12T17:40:24.646Z,100612.70
2019-03-12T17:42:54.765Z,100592.77
2019-03-12T17:45:25.084Z,100592.02
2019-03-12T17:47:55.155Z,100597.16
2019-03-12T17:50:25.572Z,100581.77
2019-03-12T17:52:55.589Z,100583.45
2019-03-12T17:55:25.475Z,100576.01
2019-03-12T17:57:55.598Z,100569.67
2019-03-12T18:00:28.555Z,100551.94
2019-03-12T18:02:59.104Z,100536.50
2019-03-12T18:05:29.461Z,100536.92
2019-03-12T18:07:59.733Z,100532.64
2019-03-12T18:10:29.931Z,100530.14
2019-03-12T18:13:00.030Z,100520.70
2019-03-12T18:15:30.141Z,100526.66
2019-03-12T18:18:00.547Z,100514.16
2019-03-12T18:20:30.857Z,100507.14
2019-03-12T18:23:01.094Z,100497.33
2019-03-12T18:25:31.241Z,100496.59
2019-03-12T18:28:01.206Z,100491.39
2019-03-12T18:30:31.501Z,100480.17
2019-03-12T18:33:01.545Z,100473.32
2019-03-12T18:35:31.554Z,100472.87
2019-03-12T18:38:01.646Z,100463.87
2019-03-12T18:40:32.203Z,100460.75
2019-03-12T18:43:02.181Z,100451.28
2019-03-12T18:45:32.204Z,100455.23
2019-03-12T18:48:02.293Z,100447.66
2019-03-12T18:50:32.465Z,100442.28
2019-03-12T18:53:02.980Z,100433.73
2019-03-12T18:56:03.493Z,100422.89
2019-03-12T18:58:33.815Z,100416.53
2019-03-12T19:01:08.452Z,100404.91
2019-03-12T19:03:38.383Z,100411.33
2019-03-12T19:06:10.222Z,100403.16
2019-03-12T19:08:47.517Z,100400.63
2019-03-12T19:11:12.419Z,100400.98
2019-03-12T19:13:43.503Z,100389.47
2019-03-12T19:16:13.630Z,100378.28
2019-03-12T19:18:44.587Z,100374.39
2019-03-12T19:21:14.885Z,100373.18
2019-03-12T19:23:45.182Z,100362.88
2019-03-12T19:26:15.458Z,100356.30
2019-03-12T19:28:45.728Z,100350.82
2019-03-12T19:31:28.386Z,100340.11
2019-03-12T19:34:00.861Z,100330.62
2019-03-12T19:36:31.449Z,100327.19
2019-03-12T19:39:02.058Z,100311.30
2019-03-12T19:41:32.422Z,100299.23
2019-03-12T19:44:02.390Z,100287.95
2019-03-12T19:46:32.802Z,100277.33
2019-03-12T19:49:02.713Z,100275.63
2019-03-12T19:51:32.719Z,100269.61
2019-03-12T19:54:02.985Z,100256.77
2019-03-12T19:56:32.918Z,100249.87
2019-03-12T19:59:02.867Z,100243.42
2019-03-12T20:01:36.122Z,100233.55
2019-03-12T20:04:06.305Z,100228.42
2019-03-12T20:06:36.472Z,100213.33
2019-03-12T20:09:09.617Z,100206.87
2019-03-12T20:12:31.642Z,100194.87
2019-03-12T20:15:55.636Z,100199.13
2019-03-12T20:19:05.375Z,100184.08
2019-03-12T20:22:36.053Z,100172.91
2019-03-12T20:26:13.437Z,100162.67
2019-03-12T20:29:46.355Z,100154.03
2019-03-12T20:33:03.260Z,100150.21
2019-03-12T20:36:58.868Z,100150.62
2019-03-12T20:40:16.610Z,100137.30
2019-03-12T20:43:48.430Z,100134.66
2019-03-12T20:47:06.812Z,100125.27
2019-03-12T20:50:26.037Z,100099.99
2019-03-12T20:54:08.125Z,100097.41
2019-03-12T20:57:27.475Z,100091.85
2019-03-12T21:00:57.550Z,100065.24
2019-03-12T21:04:47.668Z,100071.66
2019-03-12T21:08:19.991Z,100060.94
2019-03-12T21:12:00.701Z,100038.64
2019-03-12T21:15:27.787Z,100031.35
2019-03-12T21:19:00.655Z,100023.61
2019-03-12T21:22:30.759Z,100030.06
2019-03-12T21:25:36.264Z,100022.33
2019-03-12T21:28:36.599Z,100011.20
2019-03-12T21:31:06.625Z,99999.61
2019-03-12T21:33:36.810Z,99985.44
2019-03-12T21:36:08.195Z,99988.01
2019-03-12T21:38:38.382Z,99972.98
2019-03-12T21:41:08.684Z,99973.83
2019-03-12T21:43:39.042Z,99963.98
2019-03-12T21:46:09.115Z,99956.23
2019-03-12T21:48:39.598Z,99953.25
2019-03-12T21:51:09.938Z,99945.11
2019-03-12T21:53:40.317Z,99942.97
2019-03-12T21:56:10.675Z,99944.25
2019-03-12T21:58:42.081Z,99934.78
2019-03-12T22:01:12.075Z,99934.38
2019-03-12T22:03:42.871Z,99919.78
2019-03-12T22:06:12.825Z,99921.05
2019-03-12T22:08:42.695Z,99918.50
2019-03-12T22:11:12.725Z,99910.31
2019-03-12T22:13:46.088Z,99902.16
2019-03-12T22:16:16.142Z,99892.70
2019-03-12T22:18:46.054Z,99885.00
2019-03-12T22:21:17.599Z,99875.14
2019-03-12T22:23:49.361Z,99878.98
2019-03-12T22:26:19.319Z,99878.12
2019-03-12T22:28:49.549Z,99876.88
2019-03-12T22:31:19.445Z,99864.89
2019-03-12T22:33:49.344Z,99867.50
2019-03-12T22:36:19.369Z,99851.96
2019-03-12T22:38:49.543Z,99855.80
2019-03-12T22:41:19.472Z,99847.28
2019-03-12T22:43:49.596Z,99844.67
2019-03-12T22:46:19.661Z,99855.41
2019-03-12T22:48:50.201Z,99850.74
2019-03-12T22:51:20.200Z,99842.51
2019-03-12T22:53:50.103Z,99831.12
2019-03-12T22:56:20.013Z,99826.13
2019-03-12T22:58:49.958Z,99820.91
2019-03-12T23:01:20.295Z,99820.47
2019-03-12T23:03:50.550Z,99817.45
2019-03-12T23:06:20.427Z,99813.59
2019-03-12T23:08:50.403Z,99814.88
2019-03-12T23:11:20.354Z,99812.13
2019-03-12T23:13:50.280Z,99782.94
2019-03-12T23:16:20.198Z,99772.59
2019-03-12T23:18:50.270Z,99758.83
2019-03-12T23:21:20.325Z,99746.64
2019-03-12T23:23:50.241Z,99739.84
2019-03-12T23:26:20.463Z,99736.42
2019-03-12T23:28:50.755Z,99724.35
2019-03-12T23:31:21.213Z,99729.92
2019-03-12T23:33:51.510Z,99739.17
2019-03-12T23:36:21.962Z,99745.52
2019-03-12T23:38:51.935Z,99732.95
2019-03-12T23:41:22.041Z,99731.11
2019-03-12T23:43:52.371Z,99717.50
2019-03-12T23:46:22.381Z,99705.81
2019-03-12T23:48:52.771Z,99683.63
2019-03-12T23:51:22.839Z,99678.75
2019-03-12T23:53:53.050Z,99687.69
2019-03-12T23:56:23.280Z,99689.52
2019-03-12T23:58:53.462Z,99684.20
